sensor_id;sensor_type;location;lat;lon;timestamp;temperature;humidity
68867;SHT30;56451;44.804;20.476;2022-10-31T00:02:04;14.75;77.11
68867;SHT30;56451;44.804;20.476;2022-10-31T00:04:30;14.70;77.09
68867;SHT30;56451;44.804;20.476;2022-10-31T00:06:56;14.72;77.24
68867;SHT30;56451;44.804;20.476;2022-10-31T00:09:22;14.70;77.25
68867;SHT30;56451;44.804;20.476;2022-10-31T00:11:49;14.76;77.22
68867;SHT30;56451;44.804;20.476;2022-10-31T00:14:15;14.76;77.04
68867;SHT30;56451;44.804;20.476;2022-10-31T00:16:41;14.80;76.94
68867;SHT30;56451;44.804;20.476;2022-10-31T00:19:07;14.84;76.82
68867;SHT30;56451;44.804;20.476;2022-10-31T00:21:34;14.86;76.81
68867;SHT30;56451;44.804;20.476;2022-10-31T00:24:00;14.83;76.69
68867;SHT30;56451;44.804;20.476;2022-10-31T00:26:32;14.83;76.73
68867;SHT30;56451;44.804;20.476;2022-10-31T00:28:59;14.83;76.72
68867;SHT30;56451;44.804;20.476;2022-10-31T00:31:26;14.83;76.66
68867;SHT30;56451;44.804;20.476;2022-10-31T00:33:53;14.80;76.74
68867;SHT30;56451;44.804;20.476;2022-10-31T00:36:19;14.79;76.92
68867;SHT30;56451;44.804;20.476;2022-10-31T00:38:46;14.80;76.82
68867;SHT30;56451;44.804;20.476;2022-10-31T00:41:14;14.83;76.71
68867;SHT30;56451;44.804;20.476;2022-10-31T00:43:41;14.82;76.65
68867;SHT30;56451;44.804;20.476;2022-10-31T00:46:08;14.84;76.66
68867;SHT30;56451;44.804;20.476;2022-10-31T00:48:34;14.82;76.49
68867;SHT30;56451;44.804;20.476;2022-10-31T00:51:00;14.82;76.41
68867;SHT30;56451;44.804;20.476;2022-10-31T00:53:26;14.79;76.34
68867;SHT30;56451;44.804;20.476;2022-10-31T00:55:52;14.72;76.32
68867;SHT30;56451;44.804;20.476;2022-10-31T00:58:18;14.65;76.55
68867;SHT30;56451;44.804;20.476;2022-10-31T01:00:47;14.53;77.00
68867;SHT30;56451;44.804;20.476;2022-10-31T01:03:25;14.48;77.43
68867;SHT30;56451;44.804;20.476;2022-10-31T01:05:59;14.48;77.77
68867;SHT30;56451;44.804;20.476;2022-10-31T01:08:26;14.46;77.91
68867;SHT30;56451;44.804;20.476;2022-10-31T01:11:19;14.41;78.14
68867;SHT30;56451;44.804;20.476;2022-10-31T01:13:46;14.42;78.37
68867;SHT30;56451;44.804;20.476;2022-10-31T01:16:14;14.41;78.66
68867;SHT30;56451;44.804;20.476;2022-10-31T01:18:41;14.42;78.69
68867;SHT30;56451;44.804;20.476;2022-10-31T01:21:10;14.38;78.63
68867;SHT30;56451;44.804;20.476;2022-10-31T01:23:37;14.41;78.46
68867;SHT30;56451;44.804;20.476;2022-10-31T01:28:36;14.41;78.55
68867;SHT30;56451;44.804;20.476;2022-10-31T01:31:11;14.38;78.63
68867;SHT30;56451;44.804;20.476;2022-10-31T01:33:38;14.36;78.84
68867;SHT30;56451;44.804;20.476;2022-10-31T01:36:21;14.39;79.00
68867;SHT30;56451;44.804;20.476;2022-10-31T01:38:51;14.43;78.98
68867;SHT30;56451;44.804;20.476;2022-10-31T01:41:21;14.45;78.60
68867;SHT30;56451;44.804;20.476;2022-10-31T01:43:56;14.46;78.39
68867;SHT30;56451;44.804;20.476;2022-10-31T01:46:29;14.42;78.32
68867;SHT30;56451;44.804;20.476;2022-10-31T01:48:57;14.43;78.66
68867;SHT30;56451;44.804;20.476;2022-10-31T01:51:29;14.45;78.66
68867;SHT30;56451;44.804;20.476;2022-10-31T01:53:59;14.43;78.61
68867;SHT30;56451;44.804;20.476;2022-10-31T01:56:27;14.43;78.69
68867;SHT30;56451;44.804;20.476;2022-10-31T01:58:54;14.45;78.58
68867;SHT30;56451;44.804;20.476;2022-10-31T02:01:20;14.42;78.54
68867;SHT30;56451;44.804;20.476;2022-10-31T02:03:47;14.38;78.70
68867;SHT30;56451;44.804;20.476;2022-10-31T02:06:25;14.38;78.90
68867;SHT30;56451;44.804;20.476;2022-10-31T02:08:52;14.39;78.98
68867;SHT30;56451;44.804;20.476;2022-10-31T02:11:20;14.43;78.79
68867;SHT30;56451;44.804;20.476;2022-10-31T02:13:47;14.41;78.83
68867;SHT30;56451;44.804;20.476;2022-10-31T02:16:13;14.41;78.84
68867;SHT30;56451;44.804;20.476;2022-10-31T02:18:39;14.46;78.63
68867;SHT30;56451;44.804;20.476;2022-10-31T02:21:32;14.49;78.55
68867;SHT30;56451;44.804;20.476;2022-10-31T02:24:40;14.52;78.25
68867;SHT30;56451;44.804;20.476;2022-10-31T02:30:20;14.45;78.24
68867;SHT30;56451;44.804;20.476;2022-10-31T02:41:16;14.53;78.35
68867;SHT30;56451;44.804;20.476;2022-10-31T02:49:56;14.63;77.47
68867;SHT30;56451;44.804;20.476;2022-10-31T02:52:34;14.59;77.35
68867;SHT30;56451;44.804;20.476;2022-10-31T02:57:48;14.59;77.27
68867;SHT30;56451;44.804;20.476;2022-10-31T03:00:14;14.59;77.30
68867;SHT30;56451;44.804;20.476;2022-10-31T03:03:29;14.58;77.35
68867;SHT30;56451;44.804;20.476;2022-10-31T03:06:09;14.59;77.18
68867;SHT30;56451;44.804;20.476;2022-10-31T03:08:47;14.59;76.98
68867;SHT30;56451;44.804;20.476;2022-10-31T03:11:17;14.61;77.02
68867;SHT30;56451;44.804;20.476;2022-10-31T03:13:50;14.59;76.99
68867;SHT30;56451;44.804;20.476;2022-10-31T03:19:02;14.61;76.62
68867;SHT30;56451;44.804;20.476;2022-10-31T03:21:40;14.63;76.64
68867;SHT30;56451;44.804;20.476;2022-10-31T03:24:09;14.59;76.71
68867;SHT30;56451;44.804;20.476;2022-10-31T03:26:39;14.58;76.77
68867;SHT30;56451;44.804;20.476;2022-10-31T03:29:10;14.59;76.83
68867;SHT30;56451;44.804;20.476;2022-10-31T03:31:50;14.61;76.79
68867;SHT30;56451;44.804;20.476;2022-10-31T03:34:19;14.58;76.79
68867;SHT30;56451;44.804;20.476;2022-10-31T03:36:48;14.61;76.91
68867;SHT30;56451;44.804;20.476;2022-10-31T03:39:17;14.62;76.90
68867;SHT30;56451;44.804;20.476;2022-10-31T03:41:49;14.61;76.99
68867;SHT30;56451;44.804;20.476;2022-10-31T03:44:18;14.65;76.89
68867;SHT30;56451;44.804;20.476;2022-10-31T03:46:50;14.63;76.81
68867;SHT30;56451;44.804;20.476;2022-10-31T03:49:16;14.69;76.71
68867;SHT30;56451;44.804;20.476;2022-10-31T03:54:46;14.72;76.49
68867;SHT30;56451;44.804;20.476;2022-10-31T03:57:30;14.68;76.45
68867;SHT30;56451;44.804;20.476;2022-10-31T04:02:36;14.63;76.64
68867;SHT30;56451;44.804;20.476;2022-10-31T04:05:04;14.66;76.55
68867;SHT30;56451;44.804;20.476;2022-10-31T04:07:34;14.72;76.43
68867;SHT30;56451;44.804;20.476;2022-10-31T04:10:09;14.65;76.66
68867;SHT30;56451;44.804;20.476;2022-10-31T04:12:35;14.66;76.65
68867;SHT30;56451;44.804;20.476;2022-10-31T04:15:16;14.69;76.56
68867;SHT30;56451;44.804;20.476;2022-10-31T04:17:43;14.69;76.46
68867;SHT30;56451;44.804;20.476;2022-10-31T04:20:15;14.75;76.57
68867;SHT30;56451;44.804;20.476;2022-10-31T04:22:41;14.73;76.35
68867;SHT30;56451;44.804;20.476;2022-10-31T04:25:07;14.70;76.55
68867;SHT30;56451;44.804;20.476;2022-10-31T04:27:33;14.70;76.57
68867;SHT30;56451;44.804;20.476;2022-10-31T04:29:59;14.68;76.70
68867;SHT30;56451;44.804;20.476;2022-10-31T04:32:25;14.65;76.79
68867;SHT30;56451;44.804;20.476;2022-10-31T04:34:53;14.68;76.87
68867;SHT30;56451;44.804;20.476;2022-10-31T04:37:19;14.66;76.82
68867;SHT30;56451;44.804;20.476;2022-10-31T04:39:46;14.61;77.17
68867;SHT30;56451;44.804;20.476;2022-10-31T04:42:30;14.61;77.34
68867;SHT30;56451;44.804;20.476;2022-10-31T04:44:58;14.61;77.40
68867;SHT30;56451;44.804;20.476;2022-10-31T04:47:24;14.63;77.41
68867;SHT30;56451;44.804;20.476;2022-10-31T04:49:49;14.61;77.30
68867;SHT30;56451;44.804;20.476;2022-10-31T04:52:16;14.66;77.25
68867;SHT30;56451;44.804;20.476;2022-10-31T04:54:42;14.63;77.30
68867;SHT30;56451;44.804;20.476;2022-10-31T04:57:26;14.62;77.31
68867;SHT30;56451;44.804;20.476;2022-10-31T04:59:54;14.61;77.19
68867;SHT30;56451;44.804;20.476;2022-10-31T05:02:22;14.62;77.23
68867;SHT30;56451;44.804;20.476;2022-10-31T05:04:54;14.59;77.29
68867;SHT30;56451;44.804;20.476;2022-10-31T05:07:20;14.56;77.48
68867;SHT30;56451;44.804;20.476;2022-10-31T05:09:46;14.56;77.59
68867;SHT30;56451;44.804;20.476;2022-10-31T05:12:13;14.55;77.66
68867;SHT30;56451;44.804;20.476;2022-10-31T05:14:59;14.53;77.84
68867;SHT30;56451;44.804;20.476;2022-10-31T05:17:48;14.49;77.98
68867;SHT30;56451;44.804;20.476;2022-10-31T05:20:49;14.49;78.16
68867;SHT30;56451;44.804;20.476;2022-10-31T05:23:25;14.51;78.11
68867;SHT30;56451;44.804;20.476;2022-10-31T05:25:50;14.52;78.12
68867;SHT30;56451;44.804;20.476;2022-10-31T05:28:17;14.55;78.02
68867;SHT30;56451;44.804;20.476;2022-10-31T05:30:43;14.58;77.93
68867;SHT30;56451;44.804;20.476;2022-10-31T05:33:13;14.56;77.92
68867;SHT30;56451;44.804;20.476;2022-10-31T05:36:02;14.56;77.85
68867;SHT30;56451;44.804;20.476;2022-10-31T05:38:39;14.61;77.52
68867;SHT30;56451;44.804;20.476;2022-10-31T05:41:32;14.61;77.24
68867;SHT30;56451;44.804;20.476;2022-10-31T05:44:08;14.66;77.22
68867;SHT30;56451;44.804;20.476;2022-10-31T05:46:47;14.72;77.01
68867;SHT30;56451;44.804;20.476;2022-10-31T05:49:32;14.70;76.62
68867;SHT30;56451;44.804;20.476;2022-10-31T05:51:58;14.68;76.57
68867;SHT30;56451;44.804;20.476;2022-10-31T05:54:32;14.69;76.44
68867;SHT30;56451;44.804;20.476;2022-10-31T05:56:58;14.68;76.39
68867;SHT30;56451;44.804;20.476;2022-10-31T05:59:24;14.69;76.39
68867;SHT30;56451;44.804;20.476;2022-10-31T06:01:50;14.73;76.37
68867;SHT30;56451;44.804;20.476;2022-10-31T06:04:29;14.73;76.35
68867;SHT30;56451;44.804;20.476;2022-10-31T06:06:56;14.77;76.25
68867;SHT30;56451;44.804;20.476;2022-10-31T06:09:22;14.79;76.00
68867;SHT30;56451;44.804;20.476;2022-10-31T06:11:48;14.80;75.84
68867;SHT30;56451;44.804;20.476;2022-10-31T06:14:26;14.80;75.94
68867;SHT30;56451;44.804;20.476;2022-10-31T06:16:55;14.82;75.86
68867;SHT30;56451;44.804;20.476;2022-10-31T06:19:41;14.83;75.82
68867;SHT30;56451;44.804;20.476;2022-10-31T06:22:08;14.80;75.89
68867;SHT30;56451;44.804;20.476;2022-10-31T06:24:37;14.80;75.83
68867;SHT30;56451;44.804;20.476;2022-10-31T06:27:17;14.84;75.71
68867;SHT30;56451;44.804;20.476;2022-10-31T06:29:43;14.84;75.77
68867;SHT30;56451;44.804;20.476;2022-10-31T06:32:17;14.83;75.86
68867;SHT30;56451;44.804;20.476;2022-10-31T06:34:44;14.86;75.62
68867;SHT30;56451;44.804;20.476;2022-10-31T06:37:14;14.87;75.37
68867;SHT30;56451;44.804;20.476;2022-10-31T06:39:43;14.91;75.23
68867;SHT30;56451;44.804;20.476;2022-10-31T06:42:10;14.91;75.16
68867;SHT30;56451;44.804;20.476;2022-10-31T06:44:36;14.93;74.95
68867;SHT30;56451;44.804;20.476;2022-10-31T06:47:23;14.94;74.86
68867;SHT30;56451;44.804;20.476;2022-10-31T06:49:59;14.93;74.75
68867;SHT30;56451;44.804;20.476;2022-10-31T06:52:25;14.96;74.49
68867;SHT30;56451;44.804;20.476;2022-10-31T06:54:52;14.96;74.44
68867;SHT30;56451;44.804;20.476;2022-10-31T06:57:19;15.00;74.25
68867;SHT30;56451;44.804;20.476;2022-10-31T06:59:46;14.91;74.36
68867;SHT30;56451;44.804;20.476;2022-10-31T07:02:18;14.97;74.36
68867;SHT30;56451;44.804;20.476;2022-10-31T07:04:44;14.96;74.58
68867;SHT30;56451;44.804;20.476;2022-10-31T07:07:13;14.94;74.69
68867;SHT30;56451;44.804;20.476;2022-10-31T07:09:39;14.90;74.78
68867;SHT30;56451;44.804;20.476;2022-10-31T07:12:06;14.97;74.77
68867;SHT30;56451;44.804;20.476;2022-10-31T07:14:36;15.00;74.61
68867;SHT30;56451;44.804;20.476;2022-10-31T07:17:02;15.01;74.51
68867;SHT30;56451;44.804;20.476;2022-10-31T07:19:33;15.06;74.48
68867;SHT30;56451;44.804;20.476;2022-10-31T07:21:59;15.10;74.41
68867;SHT30;56451;44.804;20.476;2022-10-31T07:24:27;15.17;74.29
68867;SHT30;56451;44.804;20.476;2022-10-31T07:27:39;15.16;74.10
68867;SHT30;56451;44.804;20.476;2022-10-31T07:30:09;15.20;73.91
68867;SHT30;56451;44.804;20.476;2022-10-31T07:32:40;15.24;73.83
68867;SHT30;56451;44.804;20.476;2022-10-31T07:35:09;15.28;73.57
68867;SHT30;56451;44.804;20.476;2022-10-31T07:37:46;15.34;73.44
68867;SHT30;56451;44.804;20.476;2022-10-31T07:40:12;15.38;73.55
68867;SHT30;56451;44.804;20.476;2022-10-31T07:42:44;15.44;73.07
68867;SHT30;56451;44.804;20.476;2022-10-31T07:45:29;15.44;73.01
68867;SHT30;56451;44.804;20.476;2022-10-31T07:48:14;15.48;73.01
68867;SHT30;56451;44.804;20.476;2022-10-31T07:50:58;15.49;72.94
68867;SHT30;56451;44.804;20.476;2022-10-31T07:53:47;15.52;72.83
68867;SHT30;56451;44.804;20.476;2022-10-31T07:56:24;15.55;72.70
68867;SHT30;56451;44.804;20.476;2022-10-31T07:58:51;15.57;72.74
68867;SHT30;56451;44.804;20.476;2022-10-31T08:01:17;15.61;72.76
68867;SHT30;56451;44.804;20.476;2022-10-31T08:03:53;15.63;72.71
68867;SHT30;56451;44.804;20.476;2022-10-31T08:06:38;15.69;72.72
68867;SHT30;56451;44.804;20.476;2022-10-31T08:09:30;15.76;72.76
68867;SHT30;56451;44.804;20.476;2022-10-31T08:12:00;15.81;72.91
68867;SHT30;56451;44.804;20.476;2022-10-31T08:14:28;15.79;73.15
68867;SHT30;56451;44.804;20.476;2022-10-31T08:16:54;15.79;73.46
68867;SHT30;56451;44.804;20.476;2022-10-31T08:19:23;15.78;73.69
68867;SHT30;56451;44.804;20.476;2022-10-31T08:21:53;15.78;73.70
68867;SHT30;56451;44.804;20.476;2022-10-31T08:24:21;15.76;73.78
68867;SHT30;56451;44.804;20.476;2022-10-31T08:26:47;15.76;73.74
68867;SHT30;56451;44.804;20.476;2022-10-31T08:29:14;15.76;73.85
68867;SHT30;56451;44.804;20.476;2022-10-31T08:31:42;15.73;74.08
68867;SHT30;56451;44.804;20.476;2022-10-31T08:34:40;15.73;74.17
68867;SHT30;56451;44.804;20.476;2022-10-31T08:37:41;15.76;74.01
68867;SHT30;56451;44.804;20.476;2022-10-31T08:40:08;15.72;74.07
68867;SHT30;56451;44.804;20.476;2022-10-31T08:42:34;15.76;74.11
68867;SHT30;56451;44.804;20.476;2022-10-31T08:45:01;15.83;74.04
68867;SHT30;56451;44.804;20.476;2022-10-31T08:47:27;15.81;74.01
68867;SHT30;56451;44.804;20.476;2022-10-31T08:49:54;15.83;74.10
68867;SHT30;56451;44.804;20.476;2022-10-31T08:52:23;15.81;74.13
68867;SHT30;56451;44.804;20.476;2022-10-31T08:54:51;15.79;74.15
68867;SHT30;56451;44.804;20.476;2022-10-31T08:57:35;15.81;74.29
68867;SHT30;56451;44.804;20.476;2022-10-31T09:00:02;15.86;74.28
68867;SHT30;56451;44.804;20.476;2022-10-31T09:02:47;15.90;74.09
68867;SHT30;56451;44.804;20.476;2022-10-31T09:05:13;15.90;74.10
68867;SHT30;56451;44.804;20.476;2022-10-31T09:07:39;15.93;74.11
68867;SHT30;56451;44.804;20.476;2022-10-31T09:10:05;15.96;74.02
68867;SHT30;56451;44.804;20.476;2022-10-31T09:12:34;15.93;74.03
68867;SHT30;56451;44.804;20.476;2022-10-31T09:15:00;15.92;74.10
68867;SHT30;56451;44.804;20.476;2022-10-31T09:17:48;15.92;74.06
68867;SHT30;56451;44.804;20.476;2022-10-31T09:20:31;15.90;74.25
68867;SHT30;56451;44.804;20.476;2022-10-31T09:22:59;15.97;74.23
68867;SHT30;56451;44.804;20.476;2022-10-31T09:25:27;15.95;74.11
68867;SHT30;56451;44.804;20.476;2022-10-31T09:28:15;15.92;74.24
68867;SHT30;56451;44.804;20.476;2022-10-31T09:30:45;15.96;74.22
68867;SHT30;56451;44.804;20.476;2022-10-31T09:33:17;15.95;74.24
68867;SHT30;56451;44.804;20.476;2022-10-31T09:35:50;15.90;74.32
68867;SHT30;56451;44.804;20.476;2022-10-31T09:38:19;15.90;74.39
68867;SHT30;56451;44.804;20.476;2022-10-31T09:43:46;15.86;74.49
68867;SHT30;56451;44.804;20.476;2022-10-31T09:48:52;15.82;74.74
68867;SHT30;56451;44.804;20.476;2022-10-31T09:51:35;15.79;74.85
68867;SHT30;56451;44.804;20.476;2022-10-31T09:54:30;15.73;75.09
68867;SHT30;56451;44.804;20.476;2022-10-31T09:56:59;15.75;75.01
68867;SHT30;56451;44.804;20.476;2022-10-31T09:59:36;15.73;75.08
68867;SHT30;56451;44.804;20.476;2022-10-31T10:17:02;15.69;75.40
68867;SHT30;56451;44.804;20.476;2022-10-31T10:30:22;15.78;75.25
68867;SHT30;56451;44.804;20.476;2022-10-31T10:32:54;15.82;75.24
68867;SHT30;56451;44.804;20.476;2022-10-31T10:37:58;15.83;75.15
68867;SHT30;56451;44.804;20.476;2022-10-31T10:40:27;15.78;75.24
68867;SHT30;56451;44.804;20.476;2022-10-31T10:43:19;15.83;75.28
68867;SHT30;56451;44.804;20.476;2022-10-31T10:49:38;15.83;75.06
68867;SHT30;56451;44.804;20.476;2022-10-31T10:51:58;15.79;75.16
68867;SHT30;56451;44.804;20.476;2022-10-31T10:57:22;15.82;75.17
68867;SHT30;56451;44.804;20.476;2022-10-31T10:59:53;15.79;75.21
68867;SHT30;56451;44.804;20.476;2022-10-31T11:02:23;15.79;75.33
68867;SHT30;56451;44.804;20.476;2022-10-31T11:04:51;15.81;75.29
68867;SHT30;56451;44.804;20.476;2022-10-31T11:07:18;15.75;75.58
68867;SHT30;56451;44.804;20.476;2022-10-31T11:09:44;15.79;75.52
68867;SHT30;56451;44.804;20.476;2022-10-31T11:12:22;15.85;75.60
68867;SHT30;56451;44.804;20.476;2022-10-31T11:14:53;15.86;75.47
68867;SHT30;56451;44.804;20.476;2022-10-31T11:17:39;15.90;75.23
68867;SHT30;56451;44.804;20.476;2022-10-31T11:22:37;16.02;75.02
68867;SHT30;56451;44.804;20.476;2022-10-31T11:25:22;16.03;75.03
68867;SHT30;56451;44.804;20.476;2022-10-31T11:28:09;16.07;74.92
68867;SHT30;56451;44.804;20.476;2022-10-31T11:30:47;16.09;74.94
68867;SHT30;56451;44.804;20.476;2022-10-31T11:33:19;16.13;74.85
68867;SHT30;56451;44.804;20.476;2022-10-31T11:35:47;16.20;74.81
68867;SHT30;56451;44.804;20.476;2022-10-31T11:38:18;16.23;74.64
68867;SHT30;56451;44.804;20.476;2022-10-31T11:40:54;16.28;74.64
68867;SHT30;56451;44.804;20.476;2022-10-31T11:43:21;16.36;74.44
68867;SHT30;56451;44.804;20.476;2022-10-31T11:45:48;16.44;74.20
68867;SHT30;56451;44.804;20.476;2022-10-31T11:48:19;16.51;74.06
68867;SHT30;56451;44.804;20.476;2022-10-31T11:50:57;16.61;73.94
68867;SHT30;56451;44.804;20.476;2022-10-31T11:53:29;16.71;73.79
68867;SHT30;56451;44.804;20.476;2022-10-31T11:56:15;16.84;73.35
68867;SHT30;56451;44.804;20.476;2022-10-31T11:58:42;16.91;73.14
68867;SHT30;56451;44.804;20.476;2022-10-31T12:01:32;16.99;72.99
68867;SHT30;56451;44.804;20.476;2022-10-31T12:04:16;17.12;72.80
68867;SHT30;56451;44.804;20.476;2022-10-31T12:06:44;17.24;72.53
68867;SHT30;56451;44.804;20.476;2022-10-31T12:09:22;17.37;72.09
68867;SHT30;56451;44.804;20.476;2022-10-31T12:17:19;17.71;70.72
68867;SHT30;56451;44.804;20.476;2022-10-31T12:20:06;17.81;70.46
68867;SHT30;56451;44.804;20.476;2022-10-31T12:22:42;17.94;69.96
68867;SHT30;56451;44.804;20.476;2022-10-31T12:30:25;18.01;69.36
68867;SHT30;56451;44.804;20.476;2022-10-31T12:36:08;18.11;68.99
68867;SHT30;56451;44.804;20.476;2022-10-31T12:44:11;17.94;69.48
68867;SHT30;56451;44.804;20.476;2022-10-31T12:46:59;17.94;69.95
68867;SHT30;56451;44.804;20.476;2022-10-31T12:49:42;17.91;70.33
68867;SHT30;56451;44.804;20.476;2022-10-31T12:52:19;17.92;70.51
68867;SHT30;56451;44.804;20.476;2022-10-31T12:58:01;17.92;70.74
68867;SHT30;56451;44.804;20.476;2022-10-31T13:00:29;17.90;70.83
68867;SHT30;56451;44.804;20.476;2022-10-31T13:03:24;17.92;70.88
68867;SHT30;56451;44.804;20.476;2022-10-31T13:06:01;17.88;71.03
68867;SHT30;56451;44.804;20.476;2022-10-31T13:08:40;17.87;71.14
68867;SHT30;56451;44.804;20.476;2022-10-31T13:11:30;17.82;71.10
68867;SHT30;56451;44.804;20.476;2022-10-31T13:14:26;17.85;71.07
68867;SHT30;56451;44.804;20.476;2022-10-31T13:16:55;17.87;71.00
68867;SHT30;56451;44.804;20.476;2022-10-31T13:27:45;18.01;70.38
68867;SHT30;56451;44.804;20.476;2022-10-31T13:32:52;18.11;69.93
68867;SHT30;56451;44.804;20.476;2022-10-31T13:41:52;18.08;70.04
68867;SHT30;56451;44.804;20.476;2022-10-31T13:44:27;18.12;70.08
68867;SHT30;56451;44.804;20.476;2022-10-31T13:46:55;18.12;70.06
68867;SHT30;56451;44.804;20.476;2022-10-31T13:54:36;18.30;69.17
68867;SHT30;56451;44.804;20.476;2022-10-31T13:57:06;18.32;69.04
68867;SHT30;56451;44.804;20.476;2022-10-31T13:59:35;18.36;69.06
68867;SHT30;56451;44.804;20.476;2022-10-31T14:02:14;18.42;68.74
68867;SHT30;56451;44.804;20.476;2022-10-31T14:04:55;18.45;68.23
68867;SHT30;56451;44.804;20.476;2022-10-31T14:07:22;18.50;68.08
68867;SHT30;56451;44.804;20.476;2022-10-31T14:10:07;18.49;67.92
68867;SHT30;56451;44.804;20.476;2022-10-31T14:12:46;18.50;67.89
68867;SHT30;56451;44.804;20.476;2022-10-31T14:15:21;18.52;67.88
68867;SHT30;56451;44.804;20.476;2022-10-31T14:17:58;18.52;67.88
68867;SHT30;56451;44.804;20.476;2022-10-31T14:20:45;18.52;67.79
68867;SHT30;56451;44.804;20.476;2022-10-31T14:28:54;18.46;68.04
68867;SHT30;56451;44.804;20.476;2022-10-31T14:31:37;18.43;68.03
68867;SHT30;56451;44.804;20.476;2022-10-31T14:36:59;18.36;68.25
68867;SHT30;56451;44.804;20.476;2022-10-31T14:42:20;18.33;68.56
68867;SHT30;56451;44.804;20.476;2022-10-31T14:51:10;18.32;68.77
68867;SHT30;56451;44.804;20.476;2022-10-31T14:53:49;18.32;68.75
68867;SHT30;56451;44.804;20.476;2022-10-31T14:56:34;18.39;68.74
68867;SHT30;56451;44.804;20.476;2022-10-31T14:59:04;18.38;68.50
68867;SHT30;56451;44.804;20.476;2022-10-31T15:01:35;18.39;68.35
68867;SHT30;56451;44.804;20.476;2022-10-31T15:06:57;18.38;68.15
68867;SHT30;56451;44.804;20.476;2022-10-31T15:09:31;18.33;68.17
68867;SHT30;56451;44.804;20.476;2022-10-31T15:12:01;18.28;68.32
68867;SHT30;56451;44.804;20.476;2022-10-31T15:14:39;18.24;68.53
68867;SHT30;56451;44.804;20.476;2022-10-31T15:17:05;18.16;68.80
68867;SHT30;56451;44.804;20.476;2022-10-31T15:19:32;18.13;68.96
68867;SHT30;56451;44.804;20.476;2022-10-31T15:22:00;18.12;69.03
68867;SHT30;56451;44.804;20.476;2022-10-31T15:24:37;18.11;69.18
68867;SHT30;56451;44.804;20.476;2022-10-31T15:27:04;18.06;69.30
68867;SHT30;56451;44.804;20.476;2022-10-31T15:29:31;18.05;69.44
68867;SHT30;56451;44.804;20.476;2022-10-31T15:31:59;18.01;69.53
68867;SHT30;56451;44.804;20.476;2022-10-31T15:34:36;17.94;69.85
68867;SHT30;56451;44.804;20.476;2022-10-31T15:37:03;17.95;70.00
68867;SHT30;56451;44.804;20.476;2022-10-31T15:39:29;17.95;70.20
68867;SHT30;56451;44.804;20.476;2022-10-31T15:41:57;17.94;70.50
68867;SHT30;56451;44.804;20.476;2022-10-31T15:47:06;17.88;70.68
68867;SHT30;56451;44.804;20.476;2022-10-31T15:49:46;17.88;70.76
68867;SHT30;56451;44.804;20.476;2022-10-31T15:52:32;17.81;70.77
68867;SHT30;56451;44.804;20.476;2022-10-31T15:55:02;17.78;70.98
68867;SHT30;56451;44.804;20.476;2022-10-31T15:57:28;17.77;70.75
68867;SHT30;56451;44.804;20.476;2022-10-31T15:59:56;17.75;70.65
68867;SHT30;56451;44.804;20.476;2022-10-31T16:02:25;17.71;70.73
68867;SHT30;56451;44.804;20.476;2022-10-31T16:04:56;17.70;70.68
68867;SHT30;56451;44.804;20.476;2022-10-31T16:07:24;17.63;70.84
68867;SHT30;56451;44.804;20.476;2022-10-31T16:12:22;17.59;71.06
68867;SHT30;56451;44.804;20.476;2022-10-31T16:14:50;17.55;71.04
68867;SHT30;56451;44.804;20.476;2022-10-31T16:17:19;17.53;71.09
68867;SHT30;56451;44.804;20.476;2022-10-31T16:19:57;17.46;71.27
68867;SHT30;56451;44.804;20.476;2022-10-31T16:22:29;17.44;71.13
68867;SHT30;56451;44.804;20.476;2022-10-31T16:27:33;17.36;71.05
68867;SHT30;56451;44.804;20.476;2022-10-31T16:30:01;17.32;71.24
68867;SHT30;56451;44.804;20.476;2022-10-31T16:32:35;17.26;71.34
68867;SHT30;56451;44.804;20.476;2022-10-31T16:37:40;17.19;71.35
68867;SHT30;56451;44.804;20.476;2022-10-31T16:40:07;17.19;71.26
68867;SHT30;56451;44.804;20.476;2022-10-31T16:42:33;17.18;71.33
68867;SHT30;56451;44.804;20.476;2022-10-31T16:44:59;17.20;71.28
68867;SHT30;56451;44.804;20.476;2022-10-31T16:47:25;17.16;71.28
68867;SHT30;56451;44.804;20.476;2022-10-31T16:49:51;17.16;71.29
68867;SHT30;56451;44.804;20.476;2022-10-31T16:52:17;17.15;71.28
68867;SHT30;56451;44.804;20.476;2022-10-31T16:54:44;17.15;71.26
68867;SHT30;56451;44.804;20.476;2022-10-31T16:57:25;17.16;71.22
68867;SHT30;56451;44.804;20.476;2022-10-31T16:59:52;17.19;71.13
68867;SHT30;56451;44.804;20.476;2022-10-31T17:02:21;17.19;71.03
68867;SHT30;56451;44.804;20.476;2022-10-31T17:04:47;17.18;70.97
68867;SHT30;56451;44.804;20.476;2022-10-31T17:07:13;17.16;70.86
68867;SHT30;56451;44.804;20.476;2022-10-31T17:09:39;17.16;70.74
68867;SHT30;56451;44.804;20.476;2022-10-31T17:12:06;17.13;70.68
68867;SHT30;56451;44.804;20.476;2022-10-31T17:14:37;17.13;70.62
68867;SHT30;56451;44.804;20.476;2022-10-31T17:17:03;17.09;70.67
68867;SHT30;56451;44.804;20.476;2022-10-31T17:19:29;17.08;70.63
68867;SHT30;56451;44.804;20.476;2022-10-31T17:21:54;17.09;70.58
68867;SHT30;56451;44.804;20.476;2022-10-31T17:24:20;17.09;70.49
68867;SHT30;56451;44.804;20.476;2022-10-31T17:26:46;17.09;70.48
68867;SHT30;56451;44.804;20.476;2022-10-31T17:29:12;17.08;70.44
68867;SHT30;56451;44.804;20.476;2022-10-31T17:31:38;17.05;70.40
68867;SHT30;56451;44.804;20.476;2022-10-31T17:34:05;17.11;70.38
68867;SHT30;56451;44.804;20.476;2022-10-31T17:36:32;17.08;70.35
68867;SHT30;56451;44.804;20.476;2022-10-31T17:38:59;17.08;70.39
68867;SHT30;56451;44.804;20.476;2022-10-31T17:41:25;17.09;70.34
68867;SHT30;56451;44.804;20.476;2022-10-31T17:43:55;17.11;70.32
68867;SHT30;56451;44.804;20.476;2022-10-31T17:46:21;17.09;70.38
68867;SHT30;56451;44.804;20.476;2022-10-31T17:48:47;17.08;70.37
68867;SHT30;56451;44.804;20.476;2022-10-31T17:51:13;17.05;70.46
68867;SHT30;56451;44.804;20.476;2022-10-31T17:53:38;17.03;70.49
68867;SHT30;56451;44.804;20.476;2022-10-31T17:56:06;17.01;70.69
68867;SHT30;56451;44.804;20.476;2022-10-31T17:58:34;16.98;70.75
68867;SHT30;56451;44.804;20.476;2022-10-31T18:01:05;16.96;70.78
68867;SHT30;56451;44.804;20.476;2022-10-31T18:03:31;16.95;70.94
68867;SHT30;56451;44.804;20.476;2022-10-31T18:05:58;16.94;71.01
68867;SHT30;56451;44.804;20.476;2022-10-31T18:08:29;16.92;71.17
68867;SHT30;56451;44.804;20.476;2022-10-31T18:10:55;16.89;71.28
68867;SHT30;56451;44.804;20.476;2022-10-31T18:13:24;16.95;71.41
68867;SHT30;56451;44.804;20.476;2022-10-31T18:15:50;16.94;71.50